Latest Weather Observations for Noonamah

IDD60901

Issued at 7:41 pm CST Tuesday 26 March 2019 (issued every 10 minutes, with the page automatically refreshed every 10 minutes)

About weather observations | Map of Darwin area stations | Latest observations for Darwin area | Other Formats
Station Details ID: 014314 Name: NOONAMAH AIRSTRIP Lat: -12.61 Lon: 131.05 Height: 17.5 m
Data from the previous 72 hours. | See also: Recent months at Noonamah
Date/Time
CST
Temp
°C
App
Temp
°C
Dew
Point
°C
Rel
Hum
%
Delta-T
°C
Wind Press
QNH
hPa
Press
MSL
hPa
Rain since
9am
mm
Dir  Spd
km/h
Gust
km/h
Spd
kts
Gust
kts
26/07:30pm 24.6 30.1 24.1 97 0.3 SSW 2 4 1 2 1009.8 1009.6 24.2
26/07:00pm 24.5 30.3 24.0 97 0.3 CALM 0 4 0 2 1009.7 1009.5 24.2
26/06:30pm 24.5 29.6 24.0 97 0.3 SSE 4 6 2 3 1009.6 1009.4 24.0
26/06:00pm 24.5 29.9 23.8 96 0.5 SSW 2 4 1 2 1009.1 1008.9 24.0
26/05:30pm 24.6 30.4 23.9 96 0.5 CALM 0 0 0 0 1008.9 1008.7 23.6
26/05:00pm 24.3 29.9 23.6 96 0.5 CALM 0 4 0 2 1008.2 1008.0 23.4
26/04:30pm 24.3 29.5 23.6 96 0.5 SSW 2 4 1 2 1008.2 1008.0 22.6
26/04:00pm 24.1 28.8 23.4 96 0.5 SSW 4 7 2 4 1008.0 1007.8 21.2
26/03:30pm 24.4 28.6 23.5 95 0.6 S 7 13 4 7 1008.5 1008.3 19.6
26/03:00pm 24.6 28.0 23.4 93 0.8 SSW 11 17 6 9 1008.8 1008.6 18.8
26/02:30pm 26.4 30.7 24.2 88 1.5 SW 9 28 5 15 1009.1 1008.9 17.4
26/02:00pm 27.2 33.3 25.6 91 1.1 SSW 4 7 2 4 1009.1 1008.9 17.2
26/01:30pm 26.6 32.3 25.6 94 0.7 SW 6 7 3 4 1008.9 1008.7 17.2
26/01:00pm 26.2 33.0 25.5 96 0.5 CALM 0 2 0 1 1009.4 1009.2 17.2
26/12:30pm 25.1 28.9 24.1 94 0.7 NW 11 15 6 8 1009.4 1009.2 17.0
26/12:00pm 26.8 31.0 25.4 92 1.0 WSW 13 28 7 15 1009.9 1009.7 4.2
26/11:30am 30.3 33.4 24.2 70 4.3 WSW 15 28 8 15 1010.2 1010.0 0.0
26/11:00am 31.0 36.7 26.5 77 3.2 SSW 9 15 5 8 1010.0 1009.8 0.0
26/10:30am 29.6 33.7 24.5 74 3.6 SW 11 19 6 10 1010.2 1010.0 0.0
26/10:00am 30.4 35.7 25.9 77 3.2 WSW 9 17 5 9 1010.8 1010.6 0.0
26/09:30am 30.0 35.4 26.0 79 2.8 SW 9 19 5 10 1010.9 1010.7 0.0
26/09:00am 29.9 36.0 26.5 82 2.4 SW 7 13 4 7 1010.7 1010.5 -
26/08:30am 28.9 35.1 26.3 86 1.9 WSW 6 11 3 6 1010.5 1010.3 -
26/08:00am 28.1 34.6 26.3 90 1.3 SW 4 9 2 5 1010.1 1009.9 -
26/07:30am 27.3 34.1 26.2 94 0.8 SW 2 6 1 3 1009.9 1009.7 -
26/07:00am 26.9 33.6 25.9 94 0.7 SSW 2 4 1 2 1009.8 1009.6 -
26/06:30am 26.8 33.4 25.8 94 0.7 SW 2 6 1 3 1009.6 1009.4 -
26/06:00am 26.8 33.0 25.8 94 0.7 SW 4 6 2 3 1009.4 1009.2 -
26/05:30am 26.7 32.8 25.7 94 0.7 SW 4 6 2 3 1009.2 1009.0 -
26/05:00am 26.8 33.5 25.4 92 1.0 CALM 0 0 0 0 1009.0 1008.8 -
26/04:30am 27.2 34.0 25.6 91 1.1 CALM 0 4 0 2 1009.1 1008.9 -
26/04:00am 27.4 33.5 25.6 90 1.3 SSW 4 6 2 3 1009.0 1008.8 -
26/03:30am 27.4 33.5 25.6 90 1.3 SW 4 7 2 4 1008.9 1008.7 -
26/03:00am 27.4 33.9 25.6 90 1.3 SW 2 6 1 3 1009.1 1008.9 -
26/02:30am 27.3 33.2 25.9 92 1.0 WSW 6 7 3 4 1008.8 1008.6 -
26/02:00am 27.0 32.8 25.8 93 0.8 WSW 6 9 3 5 1009.1 1008.9 -
26/01:30am 26.5 33.3 25.5 94 0.7 CALM 0 0 0 0 1009.6 1009.4 -
26/01:00am 26.9 33.8 25.7 93 0.8 CALM 0 0 0 0 1010.0 1009.8 -
26/12:30am 26.9 33.7 25.5 92 1.0 CALM 0 0 0 0 1010.1 1009.9 -
26/12:00am 26.7 33.2 25.1 91 1.1 CALM 0 0 0 0 1010.2 1010.0 -
 
Date/Time
CST
Temp
°C
App
Temp
°C
Dew
Point
°C
Rel
Hum
%
Delta-T
°C
Wind Press
QNH
hPa
Press
MSL
hPa
Rain since
9am
mm
Dir  Spd
km/h
Gust
km/h
Spd
kts
Gust
kts
25/11:30pm 26.9 33.4 25.1 90 1.3 CALM 0 0 0 0 1010.7 1010.5 -
25/11:00pm 26.9 33.3 24.9 89 1.4 CALM 0 0 0 0 1010.6 1010.4 -
25/10:30pm 27.0 32.6 24.8 88 1.5 SW 4 6 2 3 1010.1 1009.9 0.0
25/10:00pm 27.5 33.4 24.7 85 1.9 SSW 2 4 1 2 1010.4 1010.2 0.0
25/09:30pm 27.6 32.8 24.8 85 2.0 SW 6 7 3 4 1010.1 1009.9 0.0
25/09:00pm 27.9 33.4 24.7 83 2.2 SW 4 6 2 3 1010.0 1009.8 0.0
25/08:30pm 28.3 33.7 24.5 80 2.6 SSW 4 6 2 3 1009.8 1009.6 0.0
25/08:00pm 28.6 34.1 24.6 79 2.8 SSW 4 7 2 4 1009.4 1009.2 0.0
25/07:30pm 29.1 33.9 24.4 76 3.3 WSW 7 13 4 7 1008.7 1008.5 0.0
25/07:00pm 29.4 34.3 24.7 76 3.3 WSW 7 15 4 8 1008.3 1008.1 0.0
25/06:30pm 30.0 34.8 25.1 75 3.5 WSW 9 17 5 9 1008.0 1007.8 0.0
25/06:00pm 30.4 34.4 25.0 73 3.8 W 13 20 7 11 1007.7 1007.5 0.0
25/05:30pm 30.8 34.5 25.2 72 4.0 W 15 24 8 13 1007.3 1007.1 0.0
25/05:00pm 30.9 35.1 25.3 72 4.0 W 13 20 7 11 1007.1 1006.9 0.0
25/04:30pm 31.2 34.9 24.6 68 4.6 W 13 20 7 11 1007.1 1006.9 0.0
25/04:00pm 31.0 34.1 23.6 64 5.1 W 13 20 7 11 1007.2 1007.0 0.0
25/03:30pm 31.0 34.6 24.4 68 4.6 W 13 24 7 13 1007.4 1007.2 0.0
25/03:00pm 31.4 34.2 25.0 69 4.5 W 19 33 10 18 1007.3 1007.1 0.0
25/02:30pm 32.8 36.1 25.1 64 5.5 W 17 28 9 15 1007.4 1007.2 0.0
25/02:00pm 33.5 36.8 23.8 57 6.8 WSW 13 20 7 11 1007.9 1007.7 0.0
25/01:30pm 33.1 35.6 22.5 53 7.3 WSW 13 20 7 11 1008.4 1008.2 0.0
25/01:00pm 32.6 35.6 24.6 62 5.6 W 17 28 9 15 1008.9 1008.7 0.0
25/12:30pm 32.6 35.4 24.9 64 5.4 WSW 19 32 10 17 1009.3 1009.1 0.0
25/12:00pm 32.9 35.9 24.6 61 5.8 WNW 17 26 9 14 1009.2 1009.0 0.0
25/11:30am 32.7 37.6 25.2 64 5.3 WSW 9 15 5 8 1009.7 1009.5 0.0
25/11:00am 31.7 36.4 25.5 69 4.4 W 11 19 6 10 1010.0 1009.8 0.0
25/10:30am 31.2 36.1 25.3 71 4.2 SW 9 17 5 9 1010.1 1009.9 0.0
25/10:00am 30.9 36.0 25.5 73 3.8 SW 9 13 5 7 1010.3 1010.1 0.0
25/09:30am 30.3 36.8 26.2 79 2.9 SSW 4 6 2 3 1010.5 1010.3 0.0
25/09:00am 29.3 35.7 26.1 83 2.3 SSW 4 9 2 5 1010.1 1009.9 2.2
25/08:30am 28.2 35.3 26.0 88 1.6 CALM 0 0 0 0 1009.9 1009.7 2.2
25/08:00am 26.5 33.3 25.6 95 0.6 CALM 0 0 0 0 1009.6 1009.4 2.2
25/07:30am 25.7 32.2 25.0 96 0.5 CALM 0 0 0 0 1009.4 1009.2 2.2
25/07:00am 25.2 31.2 24.3 95 0.6 CALM 0 0 0 0 1009.1 1008.9 2.2
25/06:30am 25.2 31.2 24.2 94 0.7 CALM 0 0 0 0 1008.7 1008.5 2.2
25/06:00am 25.5 31.6 24.5 94 0.7 CALM 0 2 0 1 1008.4 1008.2 2.2
25/05:30am 25.7 31.7 24.3 92 1.0 CALM 0 0 0 0 1007.9 1007.7 2.2
25/05:00am 26.0 32.1 24.4 91 1.1 CALM 0 0 0 0 1007.3 1007.1 2.2
25/04:30am 26.4 32.1 24.4 89 1.4 SW 2 4 1 2 1007.0 1006.8 2.2
25/04:00am 26.7 31.6 24.4 87 1.6 SW 6 9 3 5 1007.1 1006.9 2.2
25/03:30am 27.0 31.7 24.3 85 1.9 WSW 7 15 4 8 1007.0 1006.8 2.2
25/03:00am 27.0 31.3 24.3 85 1.9 W 9 13 5 7 1007.0 1006.8 2.2
25/02:30am 27.0 31.9 24.6 87 1.7 WSW 7 15 4 8 1007.3 1007.1 2.2
25/02:00am 27.1 32.0 24.7 87 1.7 W 7 13 4 7 1007.8 1007.6 2.2
25/01:30am 27.1 31.6 24.6 86 1.7 W 9 17 5 9 1008.6 1008.4 2.2
25/01:00am 27.2 31.8 24.7 86 1.7 WSW 9 13 5 7 1008.9 1008.7 2.2
25/12:30am 27.0 31.8 24.5 86 1.7 WSW 7 13 4 7 1009.2 1009.0 2.2
25/12:00am 26.7 31.1 23.8 84 2.0 WSW 7 11 4 6 1009.3 1009.1 2.2
 
Date/Time
CST
Temp
°C
App
Temp
°C
Dew
Point
°C
Rel
Hum
%
Delta-T
°C
Wind Press
QNH
hPa
Press
MSL
hPa
Rain since
9am
mm
Dir  Spd
km/h
Gust
km/h
Spd
kts
Gust
kts
24/11:30pm 26.6 31.1 23.7 84 2.0 WSW 6 11 3 6 1009.1 1008.9 2.2
24/11:00pm 26.6 31.1 23.9 85 1.9 W 7 11 4 6 1008.7 1008.5 2.2
24/10:30pm 26.5 30.3 24.0 86 1.7 W 11 19 6 10 1008.3 1008.1 2.2
24/10:00pm 26.3 30.2 24.2 88 1.4 W 11 20 6 11 1008.5 1008.3 2.2
24/09:30pm 25.7 30.2 23.9 90 1.2 W 7 13 4 7 1008.8 1008.6 2.2
24/09:00pm 25.8 29.6 23.5 87 1.6 W 9 15 5 8 1008.2 1008.0 2.2
24/08:30pm 25.7 30.0 23.6 88 1.4 WSW 7 13 4 7 1008.1 1007.9 2.2
24/08:00pm 25.6 30.0 23.8 90 1.2 W 7 13 4 7 1007.8 1007.6 2.2
24/07:30pm 25.7 29.9 24.1 91 1.1 W 9 17 5 9 1007.2 1007.0 2.2
24/07:00pm 25.9 29.0 24.1 90 1.2 W 15 24 8 13 1007.3 1007.1 2.2
24/06:30pm 25.4 30.2 24.4 94 0.7 W 7 15 4 8 1007.0 1006.8 2.2
24/06:00pm 25.2 30.4 24.2 94 0.7 SW 4 7 2 4 1006.7 1006.5 2.2
24/05:30pm 25.2 30.4 24.2 94 0.7 SW 4 6 2 3 1006.7 1006.5 2.0
24/05:00pm 25.2 30.3 24.0 93 0.8 SW 4 7 2 4 1006.6 1006.4 1.8
24/04:30pm 25.4 30.2 24.2 93 0.8 WSW 6 9 3 5 1006.6 1006.4 1.4
24/04:00pm 25.4 30.4 23.8 91 1.1 SW 4 7 2 4 1006.9 1006.7 1.2
24/03:30pm 25.4 29.1 23.3 88 1.4 W 9 13 5 7 1006.8 1006.6 1.0
24/03:00pm 25.8 30.3 23.7 88 1.4 WSW 6 11 3 6 1006.3 1006.1 1.0
24/02:30pm 26.0 29.4 23.3 85 1.8 WSW 11 20 6 11 1006.3 1006.1 1.0
24/02:00pm 26.1 30.2 23.2 84 2.0 WSW 7 13 4 7 1006.7 1006.5 1.0
24/01:54pm 26.2 29.4 23.1 83 2.1 WSW 11 19 6 10 1006.7 1006.5 1.0
24/01:30pm 31.2 35.4 26.0 74 3.7 WNW 15 26 8 14 1006.6 1006.4 0.2
24/01:00pm 30.5 34.1 25.6 75 3.5 WNW 17 26 9 14 1007.1 1006.9 0.2
24/12:30pm 30.4 35.0 25.9 77 3.2 WNW 13 20 7 11 1007.5 1007.3 0.2
24/12:00pm 29.9 34.0 25.2 76 3.3 WNW 13 20 7 11 1007.9 1007.7 0.2
24/11:30am 29.9 33.6 25.2 76 3.3 WNW 15 22 8 12 1008.2 1008.0 0.2
24/11:00am 30.2 34.4 24.8 73 3.8 W 11 20 6 11 1008.2 1008.0 0.2
24/10:30am 29.8 34.7 25.3 77 3.2 W 9 15 5 8 1008.2 1008.0 0.2
24/10:00am 28.1 34.8 25.9 88 1.6 SSW 2 6 1 3 1008.2 1008.0 0.0
24/09:30am 26.8 33.3 25.0 90 1.3 CALM 0 4 0 2 1008.3 1008.1 0.0
24/09:00am 26.1 32.4 24.7 92 1.0 CALM 0 0 0 0 1008.2 1008.0 5.8
24/08:30am 25.6 31.6 24.2 92 1.0 CALM 0 0 0 0 1007.7 1007.5 5.8
24/08:00am 25.5 31.0 24.1 92 1.0 S 2 4 1 2 1007.3 1007.1 5.8
24/07:30am 25.6 31.4 24.0 91 1.1 CALM 0 0 0 0 1006.8 1006.6 5.8
24/07:00am 25.6 30.6 23.8 90 1.2 SW 4 9 2 5 1006.5 1006.3 5.8
24/06:30am 25.6 29.8 23.5 88 1.4 W 7 13 4 7 1006.2 1006.0 5.8
24/06:00am 26.0 29.2 23.7 87 1.6 WNW 13 20 7 11 1005.7 1005.5 5.8
24/05:30am 26.5 29.8 23.8 85 1.9 W 13 24 7 13 1004.7 1004.5 5.8
24/05:00am 26.8 30.6 24.1 85 1.9 WNW 11 17 6 9 1004.6 1004.4 5.8
24/04:30am 27.4 32.0 24.8 86 1.8 WNW 9 19 5 10 1004.5 1004.3 5.8
24/04:00am 27.4 31.5 24.5 84 2.0 WNW 11 19 6 10 1004.6 1004.4 5.8
24/03:30am 27.9 32.1 25.3 86 1.8 WNW 13 22 7 12 1004.9 1004.7 5.8
24/03:00am 27.7 33.0 25.9 90 1.3 WNW 9 17 5 9 1005.4 1005.2 5.8
24/02:30am 27.1 32.5 25.5 91 1.1 W 7 11 4 6 1005.6 1005.4 5.8
24/02:00am 26.7 31.5 24.5 88 1.5 W 7 13 4 7 1005.8 1005.6 5.8
24/01:30am 26.9 31.5 24.2 85 1.9 W 7 13 4 7 1005.7 1005.5 5.8
24/01:00am 27.0 31.3 24.3 85 1.9 W 9 17 5 9 1005.5 1005.3 5.8
24/12:30am 26.9 30.5 23.8 83 2.1 W 11 20 6 11 1005.4 1005.2 5.8
24/12:00am 27.0 30.7 23.9 83 2.1 W 11 17 6 9 1005.5 1005.3 5.8
 
Date/Time
CST
Temp
°C
App
Temp
°C
Dew
Point
°C
Rel
Hum
%
Delta-T
°C
Wind Press
QNH
hPa
Press
MSL
hPa
Rain since
9am
mm
Dir  Spd
km/h
Gust
km/h
Spd
kts
Gust
kts
23/11:30pm 27.0 31.1 24.5 86 1.7 WNW 11 22 6 12 1006.0 1005.8 5.8
23/11:00pm 26.6 30.7 24.6 89 1.4 W 11 20 6 11 1006.8 1006.6 5.8
23/10:30pm 26.1 30.6 24.0 88 1.4 W 7 13 4 7 1007.1 1006.9 5.8
23/10:00pm 26.0 30.0 23.7 87 1.6 W 9 17 5 9 1007.2 1007.0 5.8
23/09:30pm 26.2 29.1 23.1 83 2.1 W 13 22 7 12 1006.7 1006.5 5.8
23/09:00pm 26.0 29.4 23.3 85 1.8 WNW 11 17 6 9 1006.7 1006.5 5.8
23/08:30pm 26.0 30.0 23.7 87 1.6 SW 9 15 5 8 1005.2 1005.0 5.8
23/08:00pm 25.5 29.8 23.6 89 1.3 WSW 7 11 4 6 1005.2 1005.0 5.8

Latest Capital City Observations: Canberra | Sydney | Melbourne | Brisbane | Adelaide | Perth | Hobart | Darwin

Other formats

Comma delimited format used in spreadsheet applications
http://www.bom.gov.au/fwo/IDD60901/IDD60901.94105.axf

JavaScript Object Notation format (JSON) in row-major order
http://www.bom.gov.au/fwo/IDD60901/IDD60901.94105.json

Data quality

Most of these data are generated automatically and are frequently updated. Quality checks on data are not normally performed. It is possible for incorrect values to appear. Refer to information at About Latest Weather Observations and please check the disclaimer before using these data.